Time;durP1;ratioP1;P1;durP2;ratioP2;P2;SDS_P1;SDS_P2;PMS_P1;PMS_P2;Temp;Humidity;BMP_temperature;BMP_pressure;BME280_temperature;BME280_humidity;BME280_pressure;Samples;Min_cycle;Max_cycle;Signal;HPM_P1;HPM_P2
2023/08/01 00:00:10;;;;;;;1.00;0.80;;;;;;;21.81;100.00;94944.47;5111932;28;20534;-55
2023/08/01 00:02:39;;;;;;;0.73;0.73;;;;;;;22.28;100.00;95001.94;5112403;28;20436;-55
2023/08/01 00:05:08;;;;;;;0.73;0.57;;;;;;;22.45;100.00;94993.47;5112227;28;20446;-55
2023/08/01 00:07:36;;;;;;;0.70;0.60;;;;;;;22.24;100.00;94995.66;5111978;28;20496;-55
2023/08/01 00:10:06;;;;;;;0.73;0.70;;;;;;;22.11;100.00;94994.22;5112063;28;20803;-55
2023/08/01 00:12:36;;;;;;;1.03;1.03;;;;;;;21.46;100.00;94988.31;5110881;28;20443;-55
2023/08/01 00:15:05;;;;;;;0.90;0.83;;;;;;;21.45;100.00;94988.66;5112045;28;20483;-56
2023/08/01 00:17:34;;;;;;;1.37;1.27;;;;;;;21.56;100.00;94988.91;5112083;28;20436;-55
2023/08/01 00:20:03;;;;;;;0.90;0.70;;;;;;;21.67;100.00;94984.59;5111853;28;20439;-55
2023/08/01 00:22:31;;;;;;;1.07;0.97;;;;;;;21.59;100.00;94977.44;5111751;28;20439;-55
2023/08/01 00:25:00;;;;;;;0.70;0.70;;;;;;;21.82;100.00;94983.81;5111828;28;20436;-55
2023/08/01 00:27:28;;;;;;;3.90;1.30;;;;;;;21.49;100.00;94978.75;5111794;28;20498;-55
2023/08/01 00:30:09;;;;;;;0.70;0.57;;;;;;;21.30;100.00;94981.31;5111870;28;20428;-55
2023/08/01 00:32:38;;;;;;;0.53;0.53;;;;;;;21.69;100.00;94979.63;5111914;28;20467;-56
2023/08/01 00:35:07;;;;;;;0.50;0.40;;;;;;;21.90;100.00;94977.50;5085053;28;20439;-56
2023/08/01 00:37:35;;;;;;;0.90;0.57;;;;;;;22.29;100.00;94964.94;5112036;28;20479;-55
2023/08/01 00:40:04;;;;;;;0.93;0.93;;;;;;;22.39;100.00;94970.53;5111427;28;20446;-55
2023/08/01 00:42:33;;;;;;;2.13;1.00;;;;;;;22.50;100.00;94973.50;5111607;28;20823;-55
2023/08/01 00:45:01;;;;;;;0.90;0.40;;;;;;;22.40;100.00;94974.81;5111816;28;20784;-56
2023/08/01 00:47:31;;;;;;;1.33;1.20;;;;;;;21.72;100.00;94970.84;5111314;28;20845;-56
2023/08/01 00:50:00;;;;;;;1.07;1.07;;;;;;;21.69;100.00;94974.22;5111602;28;20450;-57
2023/08/01 00:52:29;;;;;;;0.60;0.43;;;;;;;21.71;100.00;94969.25;5111266;28;20443;-55
2023/08/01 00:54:57;;;;;;;1.30;0.60;;;;;;;22.05;100.00;94971.31;5111451;28;20504;-57
2023/08/01 00:57:26;;;;;;;1.67;1.57;;;;;;;21.58;100.00;94973.97;5111307;28;20479;-57
2023/08/01 00:59:54;;;;;;;1.30;0.87;;;;;;;22.00;100.00;94966.97;5111421;28;20496;-57
2023/08/01 01:02:23;;;;;;;1.23;0.50;;;;;;;21.86;100.00;94966.59;5111614;28;20468;-56
2023/08/01 01:04:52;;;;;;;1.13;1.03;;;;;;;22.20;100.00;94970.50;5111536;28;20448;-56
2023/08/01 01:07:23;;;;;;;0.60;0.60;;;;;;;22.48;100.00;94957.66;5111259;28;20443;-56
2023/08/01 01:09:51;;;;;;;0.60;0.60;;;;;;;22.32;100.00;94956.09;5111807;28;20436;-56
2023/08/01 01:12:20;;;;;;;1.60;0.60;;;;;;;22.44;100.00;94948.66;5111663;28;20818;-56
2023/08/01 01:14:48;;;;;;;0.70;0.50;;;;;;;22.47;100.00;94956.06;5111330;28;20436;-57
2023/08/01 01:17:16;;;;;;;0.93;0.40;;;;;;;22.26;100.00;94952.13;5111154;28;20533;-57
2023/08/01 01:19:45;;;;;;;1.90;1.40;;;;;;;22.33;100.00;94953.06;5111591;28;20443;-57
2023/08/01 01:22:16;;;;;;;0.50;0.30;;;;;;;22.30;100.00;94947.56;5111610;28;20921;-57
2023/08/01 01:24:46;;;;;;;0.90;0.53;;;;;;;21.83;100.00;94951.06;5115240;28;20503;-56
2023/08/01 01:27:17;;;;;;;0.70;0.67;;;;;;;21.93;100.00;94949.81;5115385;28;20500;-57
2023/08/01 01:29:46;;;;;;;0.70;0.50;;;;;;;22.02;100.00;94943.09;5114736;28;20436;-56
2023/08/01 01:32:15;;;;;;;0.40;0.30;;;;;;;22.13;100.00;94935.25;5114866;28;20515;-57
2023/08/01 01:34:45;;;;;;;1.03;0.30;;;;;;;22.10;100.00;94933.25;5114813;28;20443;-58
2023/08/01 01:37:15;;;;;;;0.80;0.57;;;;;;;22.03;100.00;94936.59;5115310;28;20471;-57
2023/08/01 01:39:43;;;;;;;0.40;0.20;;;;;;;22.21;100.00;94934.28;5115325;27;20440;-57
2023/08/01 01:42:13;;;;;;;0.60;0.53;;;;;;;22.23;100.00;94931.22;5115328;27;20439;-57
2023/08/01 01:44:41;;;;;;;0.40;0.33;;;;;;;22.09;100.00;94924.38;5114796;28;20954;-57
2023/08/01 01:47:09;;;;;;;0.60;0.60;;;;;;;21.77;100.00;94879.66;5114252;28;20436;-57
2023/08/01 01:49:37;;;;;;;0.60;0.50;;;;;;;22.09;100.00;94932.47;5114564;28;20500;-57
2023/08/01 01:52:06;;;;;;;0.97;0.30;;;;;;;22.07;100.00;94929.34;5114209;28;20814;-56
2023/08/01 01:54:36;;;;;;;0.50;0.40;;;;;;;21.71;100.00;94928.81;5114573;28;20436;-57
2023/08/01 01:57:05;;;;;;;0.83;0.83;;;;;;;21.93;100.00;94929.03;5114664;28;20463;-57
2023/08/01 01:59:33;;;;;;;0.70;0.70;;;;;;;21.86;100.00;94928.84;5114686;28;20821;-57
2023/08/01 02:02:03;;;;;;;0.50;0.30;;;;;;;21.87;100.00;94929.63;5114408;28;20810;-57
2023/08/01 02:04:32;;;;;;;0.40;0.30;;;;;;;21.95;100.00;94915.97;5114625;28;20435;-57
2023/08/01 02:07:00;;;;;;;0.83;0.83;;;;;;;21.98;100.00;94919.88;5114689;28;20439;-57
2023/08/01 02:09:29;;;;;;;0.90;0.70;;;;;;;22.07;100.00;94923.16;5114436;28;20871;-57
2023/08/01 02:11:58;;;;;;;2.00;0.63;;;;;;;21.88;100.00;94904.97;5114275;28;20576;-57
2023/08/01 02:14:26;;;;;;;0.97;0.97;;;;;;;21.93;100.00;94926.31;5113871;28;20961;-57
2023/08/01 02:16:55;;;;;;;1.00;0.90;;;;;;;21.80;99.53;94935.63;5114125;27;20488;-57
2023/08/01 02:19:23;;;;;;;0.50;0.30;;;;;;;21.96;99.05;94928.31;5114016;28;20435;-57
2023/08/01 02:21:51;;;;;;;0.60;0.50;;;;;;;22.03;97.30;94919.59;5113542;28;20439;-56
2023/08/01 02:24:20;;;;;;;0.70;0.63;;;;;;;22.02;97.27;94931.53;5113657;28;20515;-57
2023/08/01 02:26:50;;;;;;;0.40;0.30;;;;;;;21.91;98.98;94936.66;5113404;28;20432;-57
2023/08/01 02:29:19;;;;;;;0.60;0.50;;;;;;;21.90;99.52;94937.03;5114097;28;20500;-57
2023/08/01 02:31:48;;;;;;;0.50;0.40;;;;;;;21.95;98.80;94936.75;5113506;28;20432;-57
2023/08/01 02:34:16;;;;;;;0.50;0.30;;;;;;;21.96;99.04;94939.09;5112639;28;20972;-57
2023/08/01 02:36:44;;;;;;;0.60;0.57;;;;;;;21.89;97.96;94936.22;5113431;28;20474;-57
2023/08/01 02:39:13;;;;;;;1.30;0.70;;;;;;;21.85;98.28;94929.97;5113808;28;20450;-57
2023/08/01 02:41:41;;;;;;;0.70;0.30;;;;;;;21.80;98.55;94932.91;5113267;28;20444;-57
2023/08/01 02:44:09;;;;;;;0.67;0.50;;;;;;;21.57;99.06;94907.69;5113210;28;20440;-56
2023/08/01 02:46:39;;;;;;;1.33;0.50;;;;;;;21.75;98.72;94932.38;5113826;28;20499;-56
2023/08/01 02:49:08;;;;;;;0.60;0.60;;;;;;;21.78;99.51;94939.78;5112846;28;20473;-57
2023/08/01 02:51:36;;;;;;;0.60;0.50;;;;;;;21.72;100.00;94938.47;5112969;28;20972;-57
2023/08/01 02:54:04;;;;;;;0.60;0.40;;;;;;;21.62;100.00;94944.38;5113054;28;20493;-57
2023/08/01 02:56:33;;;;;;;1.00;0.93;;;;;;;21.74;100.00;94939.69;5113475;28;20497;-57
2023/08/01 02:59:02;;;;;;;0.60;0.43;;;;;;;21.16;100.00;94944.00;5111447;28;20514;-56
2023/08/01 03:01:31;;;;;;;0.60;0.50;;;;;;;21.45;100.00;94948.22;5102748;28;20933;-57
2023/08/01 03:04:00;;;;;;;0.70;0.60;;;;;;;21.54;100.00;94946.13;5112979;28;20906;-57
2023/08/01 03:06:29;;;;;;;0.63;0.60;;;;;;;21.62;100.00;94947.09;5113188;28;20846;-57
2023/08/01 03:08:57;;;;;;;0.53;0.40;;;;;;;21.70;100.00;94956.94;5113048;28;20543;-57
2023/08/01 03:11:25;;;;;;;1.17;0.50;;;;;;;21.66;99.25;94950.66;5112966;28;20928;-58
2023/08/01 03:13:54;;;;;;;0.47;0.30;;;;;;;21.72;98.08;94944.66;5112451;28;20473;-57
2023/08/01 03:16:22;;;;;;;0.60;0.50;;;;;;;21.81;97.77;94952.56;5112854;28;20480;-57
2023/08/01 03:18:51;;;;;;;0.50;0.50;;;;;;;21.88;97.24;94958.19;5112239;28;20548;-57
2023/08/01 03:21:20;;;;;;;0.60;0.60;;;;;;;21.84;95.56;94952.66;5113232;28;20788;-57
2023/08/01 03:23:49;;;;;;;0.80;0.60;;;;;;;21.49;97.08;94951.78;5112477;28;20435;-57
2023/08/01 03:26:18;;;;;;;0.63;0.47;;;;;;;21.56;98.98;94959.25;5112512;28;20991;-57
2023/08/01 03:28:46;;;;;;;1.90;0.83;;;;;;;21.71;97.98;94951.19;5112227;28;20427;-58
2023/08/01 03:31:15;;;;;;;0.90;0.40;;;;;;;21.69;99.66;94958.03;5112604;28;20490;-55
2023/08/01 03:33:43;;;;;;;1.17;0.83;;;;;;;21.50;100.00;94923.69;5111165;28;20475;-55
2023/08/01 03:36:11;;;;;;;0.50;0.40;;;;;;;21.70;100.00;94957.72;5112242;28;20983;-55
2023/08/01 03:38:41;;;;;;;0.50;0.30;;;;;;;21.92;100.00;94962.53;5112160;28;20497;-55
2023/08/01 03:41:09;;;;;;;1.10;0.70;;;;;;;21.10;100.00;94949.97;5112345;28;20875;-55
2023/08/01 03:43:38;;;;;;;0.70;0.60;;;;;;;21.17;100.00;94966.34;5112538;28;20450;-56
2023/08/01 03:46:06;;;;;;;1.50;0.63;;;;;;;21.46;100.00;94955.94;5112581;28;20431;-55
2023/08/01 03:48:35;;;;;;;0.60;0.50;;;;;;;21.64;100.00;94969.88;5112167;28;20478;-56
2023/08/01 03:51:04;;;;;;;0.80;0.60;;;;;;;21.09;100.00;94970.75;5112173;28;20439;-56
2023/08/01 03:53:32;;;;;;;1.47;1.37;;;;;;;21.36;100.00;94969.94;5112696;28;20511;-56
2023/08/01 03:56:02;;;;;;;0.80;0.80;;;;;;;21.44;100.00;94970.91;5107729;28;20807;-55
2023/08/01 03:58:30;;;;;;;0.53;0.50;;;;;;;21.42;100.00;94971.25;5103672;28;20532;-56
2023/08/01 04:00:58;;;;;;;6.17;0.73;;;;;;;21.23;100.00;94968.44;5111593;28;20440;-56
2023/08/01 04:03:27;;;;;;;0.50;0.43;;;;;;;21.70;100.00;94973.13;5111853;28;20511;-56
2023/08/01 04:05:55;;;;;;;0.50;0.50;;;;;;;21.70;100.00;94973.91;5110294;28;20428;-56
2023/08/01 04:08:23;;;;;;;0.50;0.30;;;;;;;21.56;100.00;94980.81;5112056;28;20930;-56
2023/08/01 04:10:52;;;;;;;0.50;0.30;;;;;;;21.63;100.00;94978.34;5111888;28;20435;-56
2023/08/01 04:13:21;;;;;;;0.60;0.40;;;;;;;21.82;100.00;94981.13;5111908;28;20435;-56
2023/08/01 04:15:50;;;;;;;0.80;0.70;;;;;;;21.56;100.00;94984.31;5111919;28;20435;-56
2023/08/01 04:18:18;;;;;;;0.87;0.70;;;;;;;21.49;100.00;94998.41;5111719;28;20825;-56
2023/08/01 04:20:49;;;;;;;0.50;0.33;;;;;;;21.65;100.00;94979.56;5111657;28;20519;-56
2023/08/01 04:23:17;;;;;;;0.70;0.60;;;;;;;21.59;100.00;94972.03;5111634;28;20921;-56
2023/08/01 04:25:46;;;;;;;0.80;0.80;;;;;;;21.71;100.00;94980.84;5112167;28;20439;-56
2023/08/01 04:28:14;;;;;;;0.80;0.53;;;;;;;21.64;100.00;94980.69;5111129;28;20452;-55
2023/08/01 04:30:50;;;;;;;2.30;0.73;;;;;;;21.37;100.00;94919.50;5111882;28;20937;-56
2023/08/01 04:33:18;;;;;;;0.80;0.47;;;;;;;21.70;100.00;94984.69;5111621;28;20441;-56
2023/08/01 04:35:49;;;;;;;0.50;0.50;;;;;;;21.74;100.00;94985.56;5111866;28;20852;-56
2023/08/01 04:38:17;;;;;;;0.60;0.40;;;;;;;21.81;100.00;94987.63;5110923;28;20479;-56
2023/08/01 04:40:45;;;;;;;0.40;0.30;;;;;;;21.92;100.00;94986.03;5102085;28;20490;-56
2023/08/01 04:43:15;;;;;;;1.50;0.40;;;;;;;21.92;99.39;94994.13;5110429;28;20439;-56
2023/08/01 04:45:45;;;;;;;1.30;0.37;;;;;;;22.04;97.95;94991.31;5111573;28;20435;-55
2023/08/01 04:48:13;;;;;;;0.53;0.33;;;;;;;22.12;97.35;95001.16;5111239;28;20467;-55
2023/08/01 04:50:41;;;;;;;0.70;0.53;;;;;;;22.13;96.79;94987.34;5111714;28;20439;-55
2023/08/01 04:53:11;;;;;;;0.50;0.50;;;;;;;22.34;95.18;94989.72;5111775;28;20431;-56
2023/08/01 04:55:39;;;;;;;0.60;0.60;;;;;;;22.26;95.96;94998.81;5111648;28;20432;-53
2023/08/01 04:58:07;;;;;;;0.43;0.30;;;;;;;22.29;94.28;94992.69;5113384;28;20527;-54
2023/08/01 05:00:38;;;;;;;0.80;0.80;;;;;;;22.41;93.86;94998.00;5102307;28;21111;-55
2023/08/01 05:03:08;;;;;;;1.30;1.13;;;;;;;21.89;98.57;95001.00;5115940;28;20471;-55
2023/08/01 05:05:37;;;;;;;1.37;1.17;;;;;;;21.58;100.00;94989.38;5115183;28;20926;-55
2023/08/01 05:08:05;;;;;;;1.50;1.40;;;;;;;21.25;100.00;94995.81;5115710;28;20802;-55
2023/08/01 05:10:34;;;;;;;3.63;1.17;;;;;;;20.80;100.00;94971.03;5114960;27;20450;-54
2023/08/01 05:13:02;;;;;;;1.10;0.90;;;;;;;20.34;100.00;95006.59;5115604;28;20825;-54
2023/08/01 05:15:30;;;;;;;1.90;1.80;;;;;;;20.33;100.00;95011.19;5115059;28;20474;-54
2023/08/01 05:17:59;;;;;;;1.30;1.30;;;;;;;20.69;100.00;95013.06;5115427;28;20833;-55
2023/08/01 05:20:30;;;;;;;1.17;1.17;;;;;;;20.93;100.00;95012.97;5114956;28;20467;-54
2023/08/01 05:22:59;;;;;;;1.37;0.77;;;;;;;20.46;100.00;95020.03;5114967;28;20953;-54
2023/08/01 05:25:27;;;;;;;1.53;0.80;;;;;;;21.01;100.00;95017.47;5115180;28;20452;-54
2023/08/01 05:27:56;;;;;;;0.57;0.50;;;;;;;21.57;100.00;95012.84;5114795;28;20968;-53
2023/08/01 05:30:25;;;;;;;0.60;0.50;;;;;;;20.90;100.00;95024.44;5115127;28;20432;-54
2023/08/01 05:32:54;;;;;;;1.73;0.70;;;;;;;21.24;100.00;95028.53;5114658;28;20431;-54
2023/08/01 05:35:22;;;;;;;0.73;0.73;;;;;;;21.72;100.00;95022.09;5115118;28;20453;-55
2023/08/01 05:37:52;;;;;;;1.27;1.17;;;;;;;22.01;100.00;95014.38;5115180;28;20436;-55
2023/08/01 05:40:20;;;;;;;2.30;1.17;;;;;;;21.55;100.00;95022.44;5114428;28;20479;-54
2023/08/01 05:42:49;;;;;;;0.73;0.73;;;;;;;21.37;100.00;95014.66;5114963;28;20435;-54
2023/08/01 05:45:17;;;;;;;0.70;0.50;;;;;;;21.96;100.00;95006.56;5115312;28;20439;-55
2023/08/01 05:47:45;;;;;;;1.70;0.90;;;;;;;22.07;100.00;95015.72;5114395;28;20482;-54
2023/08/01 05:50:14;;;;;;;2.20;1.10;;;;;;;22.54;100.00;95023.75;5115016;28;20530;-54
2023/08/01 05:52:42;;;;;;;2.10;1.70;;;;;;;22.39;100.00;95013.75;5114925;28;20485;-53
2023/08/01 05:55:12;;;;;;;2.20;2.10;;;;;;;21.87;100.00;95010.56;5115046;28;20808;-54
2023/08/01 05:57:40;;;;;;;1.07;1.07;;;;;;;22.19;100.00;95011.38;5114721;28;20431;-53
2023/08/01 06:00:10;;;;;;;1.33;0.97;;;;;;;22.36;100.00;95011.78;5115200;28;20475;-53
2023/08/01 06:02:38;;;;;;;1.10;0.60;;;;;;;22.86;100.00;95010.97;5114474;27;20475;-53
2023/08/01 06:05:07;;;;;;;1.67;1.43;;;;;;;22.78;99.39;95011.97;5114644;28;20490;-53
2023/08/01 06:07:36;;;;;;;0.80;0.80;;;;;;;23.41;94.89;95007.09;5114441;28;20870;-52
2023/08/01 06:10:05;;;;;;;0.50;0.40;;;;;;;23.75;90.42;94979.13;5114472;28;20983;-50
2023/08/01 06:12:35;;;;;;;1.47;0.60;;;;;;;24.28;85.02;94995.50;5114309;28;20446;-50
2023/08/01 06:15:03;;;;;;;0.77;0.50;;;;;;;24.33;84.24;94995.97;5113839;28;20439;-50
2023/08/01 06:17:32;;;;;;;0.90;0.90;;;;;;;24.14;83.80;95000.66;5114280;28;20451;-51
2023/08/01 06:20:04;;;;;;;0.77;0.77;;;;;;;24.37;82.12;94998.72;5113651;28;20472;-50
2023/08/01 06:22:33;;;;;;;1.60;1.50;;;;;;;24.17;79.98;95006.16;5114071;28;20440;-50
2023/08/01 06:25:01;;;;;;;1.20;0.60;;;;;;;24.47;81.11;94998.09;5113816;28;20523;-50
2023/08/01 06:27:30;;;;;;;0.80;0.70;;;;;;;25.06;77.73;94994.69;5113691;28;20952;-50
2023/08/01 06:30:00;;;;;;;1.53;1.47;;;;;;;25.27;76.40;94991.44;5113537;28;20444;-49
2023/08/01 06:32:28;;;;;;;2.97;0.70;;;;;;;26.10;73.18;94984.53;5113660;28;20447;-50
2023/08/01 06:34:56;;;;;;;0.87;0.70;;;;;;;26.34;72.21;94981.25;5113942;28;20530;-50
2023/08/01 06:37:25;;;;;;;0.50;0.50;;;;;;;26.37;70.00;94977.78;5114255;28;20848;-50
2023/08/01 06:39:53;;;;;;;1.30;1.20;;;;;;;25.96;69.62;94979.00;5113594;28;21016;-50
2023/08/01 06:42:21;;;;;;;1.57;0.73;;;;;;;25.88;70.13;94980.88;5102200;28;20437;-51
2023/08/01 06:44:50;;;;;;;1.27;1.17;;;;;;;26.57;69.69;94981.81;5112556;28;20428;-57
2023/08/01 06:47:19;;;;;;;0.40;0.30;;;;;;;27.30;66.35;94974.44;5113284;28;20508;-57
2023/08/01 06:49:48;;;;;;;0.60;0.53;;;;;;;27.61;64.20;94974.56;5113648;28;20526;-58
2023/08/01 06:52:16;;;;;;;0.50;0.50;;;;;;;27.15;66.34;94976.31;5113812;28;20478;-58
2023/08/01 06:54:45;;;;;;;1.47;1.27;;;;;;;26.94;65.62;94981.69;5087360;28;20453;-59
2023/08/01 06:57:13;;;;;;;0.80;0.80;;;;;;;26.78;65.38;94979.25;5113698;28;20439;-59
2023/08/01 06:59:42;;;;;;;1.07;0.60;;;;;;;27.36;65.34;94970.97;5113337;28;20558;-56
2023/08/01 07:02:10;;;;;;;0.40;0.40;;;;;;;27.49;63.64;94969.47;5113135;28;20463;-57
2023/08/01 07:04:40;;;;;;;0.50;0.50;;;;;;;28.04;63.03;94974.63;5113256;28;20957;-57
2023/08/01 07:07:08;;;;;;;1.17;1.07;;;;;;;27.90;65.20;94974.59;5112919;28;21008;-57
2023/08/01 07:09:37;;;;;;;0.73;0.73;;;;;;;27.49;65.71;94974.91;5113579;28;20530;-57
2023/08/01 07:12:07;;;;;;;1.27;0.97;;;;;;;27.73;65.61;94966.00;5113338;28;20929;-57
2023/08/01 07:14:35;;;;;;;1.17;0.67;;;;;;;27.47;64.08;94955.47;5113463;27;20466;-58
2023/08/01 07:17:04;;;;;;;1.33;1.23;;;;;;;27.78;63.26;94961.38;5112899;28;20436;-58
2023/08/01 07:19:32;;;;;;;0.80;0.80;;;;;;;28.09;62.00;94953.22;5113545;28;20474;-57
2023/08/01 07:22:02;;;;;;;0.70;0.60;;;;;;;28.83;62.09;94960.56;5111857;28;20440;-58
2023/08/01 07:24:30;;;;;;;0.80;0.80;;;;;;;28.78;60.33;94958.25;5112880;28;20500;-58
2023/08/01 07:26:59;;;;;;;0.60;0.40;;;;;;;29.28;58.30;94958.88;5112398;28;20535;-57
2023/08/01 07:29:27;;;;;;;1.00;0.83;;;;;;;28.30;57.03;94957.91;5112857;28;20954;-57
2023/08/01 07:31:55;;;;;;;0.60;0.60;;;;;;;28.78;58.83;94969.94;5112656;28;20465;-56
2023/08/01 07:34:23;;;;;;;0.40;0.37;;;;;;;28.97;57.47;94960.50;5112476;28;20433;-56
2023/08/01 07:36:52;;;;;;;0.70;0.70;;;;;;;29.36;57.77;94968.59;5112974;28;20439;-57
2023/08/01 07:39:22;;;;;;;0.97;0.97;;;;;;;28.72;58.63;94960.59;5112243;28;20462;-57
2023/08/01 07:41:50;;;;;;;0.70;0.70;;;;;;;29.28;57.21;94953.41;5112728;28;20547;-57
2023/08/01 07:44:18;;;;;;;0.60;0.60;;;;;;;29.44;55.86;94959.19;5112586;28;20484;-57
2023/08/01 07:46:47;;;;;;;0.63;0.50;;;;;;;29.64;54.78;94945.81;5112158;28;21104;-57
2023/08/01 07:49:16;;;;;;;2.40;1.10;;;;;;;29.11;53.22;94952.28;5112077;28;20550;-57
2023/08/01 07:51:44;;;;;;;0.77;0.70;;;;;;;29.81;54.50;94958.59;5111897;28;20492;-57
2023/08/01 07:54:12;;;;;;;1.00;0.90;;;;;;;30.49;51.02;94951.44;5111789;27;20828;-58
2023/08/01 07:56:43;;;;;;;0.40;0.30;;;;;;;31.00;50.82;94945.84;5112682;28;20442;-58
2023/08/01 07:59:11;;;;;;;0.70;0.70;;;;;;;31.03;50.16;94941.50;5111806;28;20442;-52
2023/08/01 08:01:40;;;;;;;0.53;0.53;;;;;;;31.09;49.43;94937.94;5112171;28;20438;-53
2023/08/01 08:04:08;;;;;;;0.60;0.50;;;;;;;31.01;49.16;94935.69;5111732;28;20948;-52
2023/08/01 08:06:37;;;;;;;7.27;0.90;;;;;;;31.12;49.05;94934.34;5112283;28;20431;-52
2023/08/01 08:09:06;;;;;;;0.83;0.83;;;;;;;31.58;47.36;94941.22;5112180;28;20431;-52
2023/08/01 08:11:33;;;;;;;0.60;0.57;;;;;;;32.10;46.96;94931.47;5112287;28;20431;-52
2023/08/01 08:14:03;;;;;;;0.43;0.40;;;;;;;32.57;46.98;94922.06;5112000;28;20437;-52
2023/08/01 08:16:31;;;;;;;0.63;0.60;;;;;;;31.81;46.39;94922.88;5112325;28;20434;-53
2023/08/01 08:19:00;;;;;;;1.03;0.50;;;;;;;31.95;47.16;94914.44;5111958;28;21019;-53
2023/08/01 08:21:28;;;;;;;0.77;0.77;;;;;;;32.87;46.03;94903.84;5111928;28;20486;-53
2023/08/01 08:23:57;;;;;;;1.17;1.07;;;;;;;32.61;44.46;94911.78;5105358;28;20818;-53
2023/08/01 08:26:25;;;;;;;0.70;0.67;;;;;;;32.79;45.00;94896.97;5106454;28;20474;-52
2023/08/01 08:28:54;;;;;;;0.93;0.80;;;;;;;32.63;45.21;94898.44;5112555;28;20457;-53
2023/08/01 08:31:23;;;;;;;1.10;0.60;;;;;;;33.13;43.30;94895.50;5111609;28;20435;-53
2023/08/01 08:33:52;;;;;;;1.13;0.77;;;;;;;32.53;44.05;94904.91;5114812;28;20870;-53
2023/08/01 08:36:20;;;;;;;0.80;0.80;;;;;;;33.04;42.59;94898.03;5116083;28;20477;-54
2023/08/01 08:38:50;;;;;;;0.60;0.50;;;;;;;32.69;43.85;94887.72;5115968;28;20464;-53
2023/08/01 08:41:22;;;;;;;7.60;0.73;;;;;;;33.53;44.93;94892.69;5115872;28;20509;-53
2023/08/01 08:43:52;;;;;;;0.40;0.40;;;;;;;33.37;43.91;94811.00;5116252;28;20840;-53
2023/08/01 08:46:29;;;;;;;0.87;0.80;;;;;;;32.82;46.18;94885.13;5115971;28;20489;-51
2023/08/01 08:48:58;;;;;;;0.83;0.80;;;;;;;33.20;46.42;94875.34;5115591;28;20522;-54
2023/08/01 08:51:29;;;;;;;0.60;0.40;;;;;;;33.21;44.00;94880.44;5115605;28;20988;-53
2023/08/01 08:53:58;;;;;;;0.90;0.90;;;;;;;33.43;44.08;94822.25;5115439;28;20500;-56
2023/08/01 08:56:30;;;;;;;0.70;0.70;;;;;;;33.44;44.38;94874.06;5115845;28;20439;-56
2023/08/01 08:59:00;;;;;;;0.40;0.30;;;;;;;34.23;42.61;94871.78;5115559;28;20438;-56
2023/08/01 09:01:31;;;;;;;0.50;0.33;;;;;;;34.18;43.54;94874.31;5115662;27;20481;-57
2023/08/01 09:03:59;;;;;;;0.50;0.47;;;;;;;34.23;43.18;94865.53;5115345;28;20441;-56
2023/08/01 09:06:31;;;;;;;0.40;0.30;;;;;;;34.05;43.53;94865.19;5115819;28;20439;-56
2023/08/01 09:09:04;;;;;;;0.63;0.63;;;;;;;32.67;43.64;94861.91;5115552;28;20435;-56
2023/08/01 09:11:42;;;;;;;1.17;0.40;;;;;;;32.62;43.80;94855.72;5115209;28;20923;-55
2023/08/01 09:14:10;;;;;;;1.17;1.13;;;;;;;33.42;45.89;94854.44;5115853;28;20976;-55
2023/08/01 09:16:41;;;;;;;1.00;0.90;;;;;;;33.08;43.56;94849.31;5115430;28;20877;-55
2023/08/01 09:19:12;;;;;;;0.73;0.60;;;;;;;33.26;42.24;94813.22;5115126;28;20204;-56
2023/08/01 09:21:41;;;;;;;0.40;0.30;;;;;;;34.27;42.32;94839.47;5114670;28;20838;-55
2023/08/01 09:24:10;;;;;;;0.60;0.60;;;;;;;34.02;41.60;94780.78;5115074;28;20430;-55
2023/08/01 09:26:39;;;;;;;0.50;0.50;;;;;;;34.41;41.38;94833.59;5115293;28;20439;-55
2023/08/01 09:29:08;;;;;;;0.60;0.50;;;;;;;33.45;42.42;94837.09;5115048;28;20572;-52
2023/08/01 09:31:38;;;;;;;0.90;0.73;;;;;;;32.55;42.71;94778.25;5111466;28;20263;-52
2023/08/01 09:34:19;;;;;;;0.70;0.70;;;;;;;33.47;42.90;94839.44;5105914;28;20250;-52
2023/08/01 09:36:47;;;;;;;0.50;0.50;;;;;;;33.32;42.22;94830.72;5115038;28;20254;-53
2023/08/01 09:39:18;;;;;;;0.60;0.60;;;;;;;34.02;43.30;94828.31;5114846;28;20492;-51
2023/08/01 09:41:46;;;;;;;0.40;0.37;;;;;;;34.76;42.43;94818.09;5114716;28;20220;-51
2023/08/01 09:44:17;;;;;;;0.53;0.53;;;;;;;35.16;40.33;94809.50;5114246;28;20443;-51
2023/08/01 09:46:56;;;;;;;0.40;0.30;;;;;;;35.41;39.66;94815.03;5114805;28;20193;-52
2023/08/01 09:49:26;;;;;;;1.07;1.07;;;;;;;35.86;37.63;94806.50;5101123;28;20213;-51
2023/08/01 09:51:54;;;;;;;1.27;1.17;;;;;;;34.95;38.71;94817.16;5114468;28;20203;-51
2023/08/01 09:54:23;;;;;;;0.60;0.60;;;;;;;35.06;39.52;94809.41;5114532;28;20216;-52
2023/08/01 09:56:53;;;;;;;0.40;0.33;;;;;;;35.75;38.63;94804.09;5114627;28;20197;-52
2023/08/01 09:59:22;;;;;;;1.47;0.53;;;;;;;35.16;37.67;94763.44;5114742;28;20221;-53
2023/08/01 10:01:52;;;;;;;0.57;0.57;;;;;;;36.26;38.13;94780.72;5114386;28;20217;-53
2023/08/01 10:04:24;;;;;;;0.80;0.80;;;;;;;36.46;36.93;94785.16;5113288;28;20197;-53
2023/08/01 10:06:58;;;;;;;3.53;1.57;;;;;;;35.54;35.72;94775.25;5113958;28;20197;-51
2023/08/01 10:09:27;;;;;;;0.70;0.60;;;;;;;34.99;38.31;94786.78;5114282;28;20489;-52
2023/08/01 10:11:58;;;;;;;1.93;1.83;;;;;;;35.41;38.14;94777.22;5114158;28;20197;-52
2023/08/01 10:14:27;;;;;;;0.50;0.40;;;;;;;34.62;36.30;94774.47;5114239;28;20199;-51
2023/08/01 10:16:56;;;;;;;0.60;0.53;;;;;;;34.98;35.91;94769.47;5113641;27;20228;-51
2023/08/01 10:19:26;;;;;;;1.50;1.40;;;;;;;36.11;35.52;94762.34;5104183;28;20697;-51
2023/08/01 10:21:56;;;;;;;1.80;0.70;;;;;;;35.40;34.94;94766.63;5110592;28;20219;-51
2023/08/01 10:24:29;;;;;;;0.80;0.40;;;;;;;36.61;34.93;94753.09;5114164;28;20193;-52
2023/08/01 10:26:57;;;;;;;0.60;0.30;;;;;;;37.28;33.15;94756.84;5113420;28;20193;-51
2023/08/01 10:29:36;;;;;;;0.47;0.40;;;;;;;37.67;32.10;94747.00;5114421;28;20651;-51
2023/08/01 10:32:07;;;;;;;1.05;0.95;;;;;;;36.63;32.06;94742.38;5087868;28;20559;-51
2023/08/01 10:34:36;;;;;;;0.63;0.63;;;;;;;36.78;32.71;94641.19;5113787;28;20192;-52
2023/08/01 10:37:06;;;;;;;0.47;0.47;;;;;;;36.92;32.43;94734.53;5113827;28;20201;-52
2023/08/01 10:39:34;;;;;;;0.40;0.30;;;;;;;37.73;31.74;94725.78;5113936;28;20212;-52
2023/08/01 10:42:06;;;;;;;0.60;0.60;;;;;;;36.38;32.12;94731.44;5113879;28;20208;-52
2023/08/01 10:44:46;;;;;;;0.40;0.30;;;;;;;37.08;31.89;94734.34;5113788;28;20643;-52
2023/08/01 10:47:14;;;;;;;0.50;0.40;;;;;;;36.68;31.38;94709.41;5113348;28;20200;-52
2023/08/01 10:49:44;;;;;;;0.40;0.40;;;;;;;38.02;30.18;94722.63;5113765;28;20200;-52
2023/08/01 10:52:23;;;;;;;0.50;0.50;;;;;;;38.52;31.48;94713.72;5113809;28;20228;-52
2023/08/01 10:54:59;;;;;;;0.40;0.30;;;;;;;36.70;32.59;94709.72;5088920;28;20253;-55
2023/08/01 10:57:29;;;;;;;1.08;0.47;;;;;;;35.92;34.12;94708.19;5113269;28;20275;-56
2023/08/01 10:59:58;;;;;;;0.40;0.30;;;;;;;35.04;35.01;94707.13;5113307;28;20681;-56
2023/08/01 11:02:28;;;;;;;0.50;0.40;;;;;;;35.85;34.30;94700.19;5112751;28;20216;-55
2023/08/01 11:04:58;;;;;;;0.82;0.82;;;;;;;35.80;32.33;94706.25;5113219;28;20189;-55
2023/08/01 11:07:28;;;;;;;0.45;0.35;;;;;;;36.69;34.72;94697.13;5112767;28;20232;-56
2023/08/01 11:10:08;;;;;;;0.63;0.60;;;;;;;36.96;33.43;94693.00;5112973;28;20238;-56
2023/08/01 11:12:37;;;;;;;0.60;0.43;;;;;;;36.07;35.46;94646.59;5086928;28;20231;-56
2023/08/01 11:15:08;;;;;;;0.40;0.30;;;;;;;36.37;33.56;94691.22;5113498;28;20229;-55
2023/08/01 11:17:37;;;;;;;0.30;0.20;;;;;;;36.27;33.61;94687.66;5113426;28;20652;-56
2023/08/01 11:20:09;;;;;;;0.40;0.38;;;;;;;36.26;33.46;94686.88;5112845;28;20203;-55
2023/08/01 11:22:49;;;;;;;0.50;0.40;;;;;;;36.67;33.93;94680.25;5112751;28;20220;-56
2023/08/01 11:25:18;;;;;;;0.30;0.30;;;;;;;37.06;29.76;94678.00;5112713;28;20189;-55
2023/08/01 11:27:46;;;;;;;0.80;0.50;;;;;;;37.00;30.41;94675.06;5113288;28;20189;-55
2023/08/01 11:30:14;;;;;;;2.08;0.90;;;;;;;37.34;28.27;94669.31;5112785;28;20201;-55
2023/08/01 11:32:43;;;;;;;0.60;0.30;;;;;;;37.52;30.31;94674.91;5112913;27;20204;-55
2023/08/01 11:35:18;;;;;;;0.40;0.30;;;;;;;37.50;30.61;94666.31;5112635;28;20685;-56
2023/08/01 11:37:48;;;;;;;0.50;0.50;;;;;;;36.13;33.03;94671.63;5112666;28;20232;-55